sensor_id;sensor_type;location;lat;lon;timestamp;P1;durP1;ratioP1;P2;durP2;ratioP2
64208;SDS011;50527;52.414;13.226;2023-04-24T00:00:21;2.30;;;1.40;;
64208;SDS011;50527;52.414;13.226;2023-04-24T00:02:47;2.28;;;1.30;;
64208;SDS011;50527;52.414;13.226;2023-04-24T00:05:15;3.20;;;1.58;;
64208;SDS011;50527;52.414;13.226;2023-04-24T00:07:42;2.33;;;1.20;;
64208;SDS011;50527;52.414;13.226;2023-04-24T00:10:09;3.97;;;1.40;;
64208;SDS011;50527;52.414;13.226;2023-04-24T00:12:34;2.97;;;1.30;;
64208;SDS011;50527;52.414;13.226;2023-04-24T00:15:00;2.92;;;1.60;;
64208;SDS011;50527;52.414;13.226;2023-04-24T00:17:26;3.33;;;1.70;;
64208;SDS011;50527;52.414;13.226;2023-04-24T00:19:51;2.72;;;1.10;;
64208;SDS011;50527;52.414;13.226;2023-04-24T00:22:23;1.95;;;1.20;;
64208;SDS011;50527;52.414;13.226;2023-04-24T00:24:52;2.78;;;1.20;;
64208;SDS011;50527;52.414;13.226;2023-04-24T00:27:18;4.38;;;1.40;;
64208;SDS011;50527;52.414;13.226;2023-04-24T00:29:43;5.50;;;1.60;;
64208;SDS011;50527;52.414;13.226;2023-04-24T00:32:09;2.58;;;1.30;;
64208;SDS011;50527;52.414;13.226;2023-04-24T00:34:34;2.20;;;1.35;;
64208;SDS011;50527;52.414;13.226;2023-04-24T00:37:00;2.45;;;1.30;;
64208;SDS011;50527;52.414;13.226;2023-04-24T00:39:25;3.78;;;1.40;;
64208;SDS011;50527;52.414;13.226;2023-04-24T00:41:51;2.72;;;1.25;;
64208;SDS011;50527;52.414;13.226;2023-04-24T00:44:17;4.35;;;1.73;;
64208;SDS011;50527;52.414;13.226;2023-04-24T00:46:43;4.68;;;1.60;;
64208;SDS011;50527;52.414;13.226;2023-04-24T00:49:08;3.17;;;1.40;;
64208;SDS011;50527;52.414;13.226;2023-04-24T00:51:34;2.65;;;1.25;;
64208;SDS011;50527;52.414;13.226;2023-04-24T00:54:01;2.70;;;1.50;;
64208;SDS011;50527;52.414;13.226;2023-04-24T00:56:27;3.08;;;1.25;;
64208;SDS011;50527;52.414;13.226;2023-04-24T00:58:53;2.70;;;1.55;;
64208;SDS011;50527;52.414;13.226;2023-04-24T01:01:19;2.97;;;1.50;;
64208;SDS011;50527;52.414;13.226;2023-04-24T01:03:45;2.65;;;1.38;;
64208;SDS011;50527;52.414;13.226;2023-04-24T01:06:11;3.78;;;1.42;;
64208;SDS011;50527;52.414;13.226;2023-04-24T01:08:37;2.85;;;1.45;;
64208;SDS011;50527;52.414;13.226;2023-04-24T01:11:04;6.35;;;1.60;;
64208;SDS011;50527;52.414;13.226;2023-04-24T01:13:31;2.47;;;1.50;;
64208;SDS011;50527;52.414;13.226;2023-04-24T01:15:57;3.92;;;1.60;;
64208;SDS011;50527;52.414;13.226;2023-04-24T01:18:23;2.90;;;1.52;;
64208;SDS011;50527;52.414;13.226;2023-04-24T01:20:48;4.18;;;1.60;;
64208;SDS011;50527;52.414;13.226;2023-04-24T01:23:17;2.38;;;1.30;;
64208;SDS011;50527;52.414;13.226;2023-04-24T01:25:43;2.78;;;1.23;;
64208;SDS011;50527;52.414;13.226;2023-04-24T01:28:08;2.42;;;1.33;;
64208;SDS011;50527;52.414;13.226;2023-04-24T01:30:34;4.25;;;1.60;;
64208;SDS011;50527;52.414;13.226;2023-04-24T01:33:00;2.85;;;1.40;;
64208;SDS011;50527;52.414;13.226;2023-04-24T01:35:26;2.50;;;1.52;;
64208;SDS011;50527;52.414;13.226;2023-04-24T01:37:52;2.85;;;1.65;;
64208;SDS011;50527;52.414;13.226;2023-04-24T01:40:17;2.53;;;1.33;;
64208;SDS011;50527;52.414;13.226;2023-04-24T01:42:43;3.38;;;1.52;;
64208;SDS011;50527;52.414;13.226;2023-04-24T01:45:10;2.67;;;1.45;;
64208;SDS011;50527;52.414;13.226;2023-04-24T01:47:36;2.95;;;1.50;;
64208;SDS011;50527;52.414;13.226;2023-04-24T01:50:02;5.43;;;1.77;;
64208;SDS011;50527;52.414;13.226;2023-04-24T01:52:28;3.15;;;1.63;;
64208;SDS011;50527;52.414;13.226;2023-04-24T01:54:56;2.70;;;1.42;;
64208;SDS011;50527;52.414;13.226;2023-04-24T01:57:21;3.20;;;1.60;;
64208;SDS011;50527;52.414;13.226;2023-04-24T01:59:47;3.88;;;1.67;;
64208;SDS011;50527;52.414;13.226;2023-04-24T02:02:13;4.45;;;1.80;;
64208;SDS011;50527;52.414;13.226;2023-04-24T02:04:39;5.40;;;1.67;;
64208;SDS011;50527;52.414;13.226;2023-04-24T02:07:04;3.95;;;1.80;;
64208;SDS011;50527;52.414;13.226;2023-04-24T02:09:30;2.90;;;1.60;;
64208;SDS011;50527;52.414;13.226;2023-04-24T02:11:55;4.68;;;1.70;;
64208;SDS011;50527;52.414;13.226;2023-04-24T02:14:21;3.97;;;1.50;;
64208;SDS011;50527;52.414;13.226;2023-04-24T02:16:46;5.95;;;1.55;;
64208;SDS011;50527;52.414;13.226;2023-04-24T02:19:12;3.70;;;1.70;;
64208;SDS011;50527;52.414;13.226;2023-04-24T02:21:37;4.68;;;1.65;;
64208;SDS011;50527;52.414;13.226;2023-04-24T02:24:03;3.60;;;1.83;;
64208;SDS011;50527;52.414;13.226;2023-04-24T02:26:28;2.70;;;1.30;;
64208;SDS011;50527;52.414;13.226;2023-04-24T02:28:56;7.93;;;1.90;;
64208;SDS011;50527;52.414;13.226;2023-04-24T02:31:22;3.95;;;1.80;;
64208;SDS011;50527;52.414;13.226;2023-04-24T02:33:47;5.07;;;1.75;;
64208;SDS011;50527;52.414;13.226;2023-04-24T02:36:13;3.72;;;1.60;;
64208;SDS011;50527;52.414;13.226;2023-04-24T02:38:39;4.00;;;1.60;;
64208;SDS011;50527;52.414;13.226;2023-04-24T02:41:04;3.67;;;1.67;;
64208;SDS011;50527;52.414;13.226;2023-04-24T02:43:31;3.15;;;1.77;;
64208;SDS011;50527;52.414;13.226;2023-04-24T02:45:57;3.50;;;1.73;;
64208;SDS011;50527;52.414;13.226;2023-04-24T02:48:23;3.80;;;1.80;;
64208;SDS011;50527;52.414;13.226;2023-04-24T02:50:48;5.85;;;1.45;;
64208;SDS011;50527;52.414;13.226;2023-04-24T02:53:15;3.47;;;2.00;;
64208;SDS011;50527;52.414;13.226;2023-04-24T02:55:41;4.97;;;1.70;;
64208;SDS011;50527;52.414;13.226;2023-04-24T02:58:06;4.10;;;1.80;;
64208;SDS011;50527;52.414;13.226;2023-04-24T03:00:32;2.90;;;1.63;;
64208;SDS011;50527;52.414;13.226;2023-04-24T03:02:57;7.93;;;1.75;;
64208;SDS011;50527;52.414;13.226;2023-04-24T03:05:23;7.05;;;1.98;;
64208;SDS011;50527;52.414;13.226;2023-04-24T03:07:48;2.95;;;1.50;;
64208;SDS011;50527;52.414;13.226;2023-04-24T03:10:14;7.30;;;1.60;;
64208;SDS011;50527;52.414;13.226;2023-04-24T03:12:40;2.83;;;1.40;;
64208;SDS011;50527;52.414;13.226;2023-04-24T03:15:05;4.03;;;1.92;;
64208;SDS011;50527;52.414;13.226;2023-04-24T03:17:31;2.95;;;1.65;;
64208;SDS011;50527;52.414;13.226;2023-04-24T03:19:57;3.85;;;1.75;;
64208;SDS011;50527;52.414;13.226;2023-04-24T03:22:23;3.10;;;1.60;;
64208;SDS011;50527;52.414;13.226;2023-04-24T03:24:48;4.47;;;2.15;;
64208;SDS011;50527;52.414;13.226;2023-04-24T03:27:14;4.13;;;1.98;;
64208;SDS011;50527;52.414;13.226;2023-04-24T03:29:39;5.45;;;1.63;;
64208;SDS011;50527;52.414;13.226;2023-04-24T03:32:05;3.50;;;1.80;;
64208;SDS011;50527;52.414;13.226;2023-04-24T03:34:30;3.08;;;1.80;;
64208;SDS011;50527;52.414;13.226;2023-04-24T03:36:56;2.85;;;1.45;;
64208;SDS011;50527;52.414;13.226;2023-04-24T03:39:21;3.03;;;1.40;;
64208;SDS011;50527;52.414;13.226;2023-04-24T03:41:47;5.13;;;1.85;;
64208;SDS011;50527;52.414;13.226;2023-04-24T03:44:12;3.53;;;1.60;;
64208;SDS011;50527;52.414;13.226;2023-04-24T03:46:38;2.65;;;1.48;;
64208;SDS011;50527;52.414;13.226;2023-04-24T03:49:03;2.17;;;1.40;;
64208;SDS011;50527;52.414;13.226;2023-04-24T03:51:29;4.55;;;1.60;;
64208;SDS011;50527;52.414;13.226;2023-04-24T03:53:55;2.90;;;1.67;;
64208;SDS011;50527;52.414;13.226;2023-04-24T03:56:21;2.78;;;1.67;;
64208;SDS011;50527;52.414;13.226;2023-04-24T03:58:46;3.40;;;1.60;;
64208;SDS011;50527;52.414;13.226;2023-04-24T04:01:12;3.50;;;1.63;;
64208;SDS011;50527;52.414;13.226;2023-04-24T04:03:38;3.38;;;1.67;;
64208;SDS011;50527;52.414;13.226;2023-04-24T04:06:03;3.25;;;1.60;;
64208;SDS011;50527;52.414;13.226;2023-04-24T04:08:29;5.07;;;1.83;;
64208;SDS011;50527;52.414;13.226;2023-04-24T04:10:55;4.20;;;1.75;;
64208;SDS011;50527;52.414;13.226;2023-04-24T04:13:20;3.50;;;1.60;;
64208;SDS011;50527;52.414;13.226;2023-04-24T04:15:46;2.45;;;1.42;;
64208;SDS011;50527;52.414;13.226;2023-04-24T04:18:11;3.67;;;1.75;;
64208;SDS011;50527;52.414;13.226;2023-04-24T04:20:37;2.17;;;1.30;;
64208;SDS011;50527;52.414;13.226;2023-04-24T04:23:02;2.70;;;1.50;;
64208;SDS011;50527;52.414;13.226;2023-04-24T04:25:28;3.45;;;1.60;;
64208;SDS011;50527;52.414;13.226;2023-04-24T04:27:54;3.63;;;1.35;;
64208;SDS011;50527;52.414;13.226;2023-04-24T04:30:19;4.18;;;1.45;;
64208;SDS011;50527;52.414;13.226;2023-04-24T04:32:45;2.42;;;1.27;;
64208;SDS011;50527;52.414;13.226;2023-04-24T04:35:11;2.67;;;1.50;;
64208;SDS011;50527;52.414;13.226;2023-04-24T04:37:37;2.75;;;1.40;;
64208;SDS011;50527;52.414;13.226;2023-04-24T04:40:03;2.55;;;1.50;;
64208;SDS011;50527;52.414;13.226;2023-04-24T04:42:32;7.22;;;1.40;;
64208;SDS011;50527;52.414;13.226;2023-04-24T04:44:59;2.72;;;1.40;;
64208;SDS011;50527;52.414;13.226;2023-04-24T04:47:25;4.00;;;1.27;;
64208;SDS011;50527;52.414;13.226;2023-04-24T04:49:53;2.20;;;1.33;;
64208;SDS011;50527;52.414;13.226;2023-04-24T04:52:19;3.75;;;1.38;;
64208;SDS011;50527;52.414;13.226;2023-04-24T04:54:44;2.42;;;1.30;;
64208;SDS011;50527;52.414;13.226;2023-04-24T04:57:11;5.47;;;1.45;;
64208;SDS011;50527;52.414;13.226;2023-04-24T04:59:37;2.78;;;1.25;;
64208;SDS011;50527;52.414;13.226;2023-04-24T05:02:02;2.47;;;1.40;;
64208;SDS011;50527;52.414;13.226;2023-04-24T05:04:27;3.03;;;1.38;;
64208;SDS011;50527;52.414;13.226;2023-04-24T05:06:53;2.25;;;1.30;;
64208;SDS011;50527;52.414;13.226;2023-04-24T05:09:18;2.38;;;1.15;;
64208;SDS011;50527;52.414;13.226;2023-04-24T05:11:44;2.97;;;1.30;;
64208;SDS011;50527;52.414;13.226;2023-04-24T05:14:10;4.30;;;1.20;;
64208;SDS011;50527;52.414;13.226;2023-04-24T05:16:37;2.15;;;1.23;;
64208;SDS011;50527;52.414;13.226;2023-04-24T05:19:03;3.13;;;1.30;;
64208;SDS011;50527;52.414;13.226;2023-04-24T05:21:28;3.63;;;1.17;;
64208;SDS011;50527;52.414;13.226;2023-04-24T05:23:54;4.95;;;1.02;;
64208;SDS011;50527;52.414;13.226;2023-04-24T05:26:19;3.45;;;0.80;;
64208;SDS011;50527;52.414;13.226;2023-04-24T05:28:45;2.08;;;1.10;;
64208;SDS011;50527;52.414;13.226;2023-04-24T05:31:10;2.92;;;0.90;;
64208;SDS011;50527;52.414;13.226;2023-04-24T05:33:37;2.38;;;0.70;;
64208;SDS011;50527;52.414;13.226;2023-04-24T05:36:03;3.70;;;0.70;;
64208;SDS011;50527;52.414;13.226;2023-04-24T05:38:30;1.48;;;0.65;;
64208;SDS011;50527;52.414;13.226;2023-04-24T05:40:55;1.08;;;0.63;;
64208;SDS011;50527;52.414;13.226;2023-04-24T05:43:21;1.20;;;0.50;;
64208;SDS011;50527;52.414;13.226;2023-04-24T05:45:46;2.30;;;0.70;;
64208;SDS011;50527;52.414;13.226;2023-04-24T05:48:12;1.60;;;0.73;;
64208;SDS011;50527;52.414;13.226;2023-04-24T05:50:37;0.88;;;0.60;;
64208;SDS011;50527;52.414;13.226;2023-04-24T05:53:03;1.10;;;0.50;;
64208;SDS011;50527;52.414;13.226;2023-04-24T05:55:30;1.00;;;0.30;;
64208;SDS011;50527;52.414;13.226;2023-04-24T05:57:55;0.40;;;0.40;;
64208;SDS011;50527;52.414;13.226;2023-04-24T06:00:21;2.05;;;0.60;;
64208;SDS011;50527;52.414;13.226;2023-04-24T06:02:47;3.67;;;0.60;;
64208;SDS011;50527;52.414;13.226;2023-04-24T06:05:12;1.23;;;0.40;;
64208;SDS011;50527;52.414;13.226;2023-04-24T06:07:38;0.98;;;0.30;;
64208;SDS011;50527;52.414;13.226;2023-04-24T06:10:03;0.70;;;0.30;;
64208;SDS011;50527;52.414;13.226;2023-04-24T06:12:29;1.02;;;0.40;;
64208;SDS011;50527;52.414;13.226;2023-04-24T06:14:55;0.30;;;0.17;;
64208;SDS011;50527;52.414;13.226;2023-04-24T06:17:21;0.47;;;0.28;;
64208;SDS011;50527;52.414;13.226;2023-04-24T06:19:46;1.00;;;0.20;;
64208;SDS011;50527;52.414;13.226;2023-04-24T06:22:12;0.30;;;0.20;;
64208;SDS011;50527;52.414;13.226;2023-04-24T06:24:39;0.50;;;0.20;;
64208;SDS011;50527;52.414;13.226;2023-04-24T06:27:05;0.75;;;0.22;;
64208;SDS011;50527;52.414;13.226;2023-04-24T06:29:30;0.93;;;0.20;;
64208;SDS011;50527;52.414;13.226;2023-04-24T06:31:56;1.67;;;0.30;;
64208;SDS011;50527;52.414;13.226;2023-04-24T06:34:21;1.58;;;0.28;;
64208;SDS011;50527;52.414;13.226;2023-04-24T06:36:47;0.85;;;0.20;;
64208;SDS011;50527;52.414;13.226;2023-04-24T06:39:12;1.27;;;0.15;;
64208;SDS011;50527;52.414;13.226;2023-04-24T06:41:38;0.50;;;0.20;;
64208;SDS011;50527;52.414;13.226;2023-04-24T06:44:04;2.13;;;0.28;;
64208;SDS011;50527;52.414;13.226;2023-04-24T06:46:30;1.30;;;0.30;;
64208;SDS011;50527;52.414;13.226;2023-04-24T06:48:55;1.42;;;0.30;;
64208;SDS011;50527;52.414;13.226;2023-04-24T06:51:22;2.95;;;0.43;;
64208;SDS011;50527;52.414;13.226;2023-04-24T06:53:48;0.93;;;0.20;;
64208;SDS011;50527;52.414;13.226;2023-04-24T06:56:14;0.70;;;0.28;;
64208;SDS011;50527;52.414;13.226;2023-04-24T06:58:40;2.22;;;0.20;;
64208;SDS011;50527;52.414;13.226;2023-04-24T07:01:06;0.47;;;0.20;;
64208;SDS011;50527;52.414;13.226;2023-04-24T07:03:32;1.10;;;0.20;;
64208;SDS011;50527;52.414;13.226;2023-04-24T07:05:57;0.40;;;0.10;;
64208;SDS011;50527;52.414;13.226;2023-04-24T07:08:23;0.70;;;0.20;;
64208;SDS011;50527;52.414;13.226;2023-04-24T07:10:49;0.85;;;0.30;;
64208;SDS011;50527;52.414;13.226;2023-04-24T07:13:15;1.10;;;0.20;;
64208;SDS011;50527;52.414;13.226;2023-04-24T07:15:41;0.15;;;0.10;;
64208;SDS011;50527;52.414;13.226;2023-04-24T07:18:06;3.75;;;0.20;;
64208;SDS011;50527;52.414;13.226;2023-04-24T07:20:32;0.88;;;0.40;;
64208;SDS011;50527;52.414;13.226;2023-04-24T07:22:58;0.68;;;0.10;;
64208;SDS011;50527;52.414;13.226;2023-04-24T07:25:23;0.70;;;0.17;;
64208;SDS011;50527;52.414;13.226;2023-04-24T07:27:49;1.20;;;0.10;;
64208;SDS011;50527;52.414;13.226;2023-04-24T07:30:14;0.30;;;0.20;;
64208;SDS011;50527;52.414;13.226;2023-04-24T07:32:40;0.95;;;0.47;;
64208;SDS011;50527;52.414;13.226;2023-04-24T07:35:05;0.30;;;0.20;;
64208;SDS011;50527;52.414;13.226;2023-04-24T07:37:31;1.75;;;0.17;;
64208;SDS011;50527;52.414;13.226;2023-04-24T07:39:56;0.98;;;0.20;;
64208;SDS011;50527;52.414;13.226;2023-04-24T07:42:22;0.93;;;0.20;;
64208;SDS011;50527;52.414;13.226;2023-04-24T07:44:47;0.35;;;0.17;;
64208;SDS011;50527;52.414;13.226;2023-04-24T07:47:13;1.65;;;0.10;;
64208;SDS011;50527;52.414;13.226;2023-04-24T07:49:41;0.47;;;0.15;;
64208;SDS011;50527;52.414;13.226;2023-04-24T07:52:07;0.98;;;0.20;;
64208;SDS011;50527;52.414;13.226;2023-04-24T07:54:32;0.40;;;0.10;;
64208;SDS011;50527;52.414;13.226;2023-04-24T07:56:58;3.75;;;0.43;;
64208;SDS011;50527;52.414;13.226;2023-04-24T07:59:23;0.20;;;0.10;;
64208;SDS011;50527;52.414;13.226;2023-04-24T08:01:49;1.98;;;0.20;;
64208;SDS011;50527;52.414;13.226;2023-04-24T08:04:15;0.20;;;0.00;;
64208;SDS011;50527;52.414;13.226;2023-04-24T08:06:40;0.00;;;0.00;;
64208;SDS011;50527;52.414;13.226;2023-04-24T08:09:06;0.38;;;0.20;;
64208;SDS011;50527;52.414;13.226;2023-04-24T08:11:31;0.95;;;0.10;;
64208;SDS011;50527;52.414;13.226;2023-04-24T08:13:57;0.10;;;0.10;;
64208;SDS011;50527;52.414;13.226;2023-04-24T08:16:23;0.80;;;0.10;;
64208;SDS011;50527;52.414;13.226;2023-04-24T08:18:49;2.03;;;0.10;;
64208;SDS011;50527;52.414;13.226;2023-04-24T08:21:14;0.47;;;0.10;;
64208;SDS011;50527;52.414;13.226;2023-04-24T08:23:41;1.40;;;0.32;;
64208;SDS011;50527;52.414;13.226;2023-04-24T08:26:07;0.10;;;0.05;;
64208;SDS011;50527;52.414;13.226;2023-04-24T08:28:33;0.68;;;0.20;;
64208;SDS011;50527;52.414;13.226;2023-04-24T08:30:58;2.45;;;0.10;;
64208;SDS011;50527;52.414;13.226;2023-04-24T08:33:24;0.55;;;0.10;;
64208;SDS011;50527;52.414;13.226;2023-04-24T08:35:49;0.45;;;0.10;;
64208;SDS011;50527;52.414;13.226;2023-04-24T08:38:15;0.10;;;0.05;;
64208;SDS011;50527;52.414;13.226;2023-04-24T08:40:41;0.17;;;0.15;;
64208;SDS011;50527;52.414;13.226;2023-04-24T08:43:08;1.27;;;0.10;;
64208;SDS011;50527;52.414;13.226;2023-04-24T08:45:35;1.55;;;0.10;;
64208;SDS011;50527;52.414;13.226;2023-04-24T08:48:01;0.28;;;0.13;;
64208;SDS011;50527;52.414;13.226;2023-04-24T08:50:29;1.02;;;0.10;;
64208;SDS011;50527;52.414;13.226;2023-04-24T08:52:55;1.20;;;0.13;;
64208;SDS011;50527;52.414;13.226;2023-04-24T08:55:22;0.20;;;0.10;;
64208;SDS011;50527;52.414;13.226;2023-04-24T08:57:50;1.83;;;0.10;;
64208;SDS011;50527;52.414;13.226;2023-04-24T09:00:21;1.15;;;0.25;;
64208;SDS011;50527;52.414;13.226;2023-04-24T09:02:47;0.38;;;0.10;;
64208;SDS011;50527;52.414;13.226;2023-04-24T09:05:14;0.43;;;0.20;;
64208;SDS011;50527;52.414;13.226;2023-04-24T09:07:43;0.10;;;0.10;;
64208;SDS011;50527;52.414;13.226;2023-04-24T09:10:12;0.85;;;0.10;;
64208;SDS011;50527;52.414;13.226;2023-04-24T09:12:38;0.55;;;0.20;;
64208;SDS011;50527;52.414;13.226;2023-04-24T09:15:03;0.30;;;0.20;;
64208;SDS011;50527;52.414;13.226;2023-04-24T09:17:32;2.03;;;0.22;;
64208;SDS011;50527;52.414;13.226;2023-04-24T09:19:59;0.08;;;0.08;;
64208;SDS011;50527;52.414;13.226;2023-04-24T09:22:24;1.95;;;0.20;;
64208;SDS011;50527;52.414;13.226;2023-04-24T09:24:59;0.77;;;0.10;;
64208;SDS011;50527;52.414;13.226;2023-04-24T09:27:30;0.43;;;0.13;;
64208;SDS011;50527;52.414;13.226;2023-04-24T09:29:56;0.65;;;0.10;;
64208;SDS011;50527;52.414;13.226;2023-04-24T09:32:22;0.30;;;0.20;;
64208;SDS011;50527;52.414;13.226;2023-04-24T09:37:41;1.75;;;0.10;;
64208;SDS011;50527;52.414;13.226;2023-04-24T09:40:09;3.00;;;0.10;;
64208;SDS011;50527;52.414;13.226;2023-04-24T09:42:43;0.45;;;0.10;;
64208;SDS011;50527;52.414;13.226;2023-04-24T09:45:28;2.92;;;0.17;;
64208;SDS011;50527;52.414;13.226;2023-04-24T09:47:59;1.00;;;0.13;;
64208;SDS011;50527;52.414;13.226;2023-04-24T09:50:25;1.27;;;0.30;;
64208;SDS011;50527;52.414;13.226;2023-04-24T09:53:02;1.92;;;0.30;;
64208;SDS011;50527;52.414;13.226;2023-04-24T09:55:29;0.10;;;0.00;;
64208;SDS011;50527;52.414;13.226;2023-04-24T09:57:56;1.08;;;0.20;;
64208;SDS011;50527;52.414;13.226;2023-04-24T10:00:29;1.25;;;0.20;;
64208;SDS011;50527;52.414;13.226;2023-04-24T10:03:03;0.20;;;0.00;;
64208;SDS011;50527;52.414;13.226;2023-04-24T10:05:30;0.43;;;0.00;;
64208;SDS011;50527;52.414;13.226;2023-04-24T10:08:01;1.08;;;0.10;;
64208;SDS011;50527;52.414;13.226;2023-04-24T10:10:28;0.10;;;0.00;;
64208;SDS011;50527;52.414;13.226;2023-04-24T10:12:55;0.95;;;0.20;;
64208;SDS011;50527;52.414;13.226;2023-04-24T10:15:21;0.20;;;0.10;;
64208;SDS011;50527;52.414;13.226;2023-04-24T10:17:47;0.80;;;0.32;;
64208;SDS011;50527;52.414;13.226;2023-04-24T10:20:21;0.10;;;0.10;;
64208;SDS011;50527;52.414;13.226;2023-04-24T10:22:48;0.00;;;0.00;;
64208;SDS011;50527;52.414;13.226;2023-04-24T10:25:16;0.95;;;0.20;;
64208;SDS011;50527;52.414;13.226;2023-04-24T10:27:46;3.50;;;0.30;;
64208;SDS011;50527;52.414;13.226;2023-04-24T10:30:12;0.93;;;0.15;;
64208;SDS011;50527;52.414;13.226;2023-04-24T10:32:38;1.23;;;0.30;;
64208;SDS011;50527;52.414;13.226;2023-04-24T10:35:05;1.00;;;0.10;;
64208;SDS011;50527;52.414;13.226;2023-04-24T10:37:36;0.00;;;0.00;;
64208;SDS011;50527;52.414;13.226;2023-04-24T10:40:03;0.30;;;0.10;;
64208;SDS011;50527;52.414;13.226;2023-04-24T10:42:30;2.85;;;0.30;;
64208;SDS011;50527;52.414;13.226;2023-04-24T10:44:55;1.13;;;0.15;;
64208;SDS011;50527;52.414;13.226;2023-04-24T10:47:22;1.95;;;0.17;;
64208;SDS011;50527;52.414;13.226;2023-04-24T10:49:50;0.75;;;0.10;;
64208;SDS011;50527;52.414;13.226;2023-04-24T10:52:15;1.65;;;0.10;;
64208;SDS011;50527;52.414;13.226;2023-04-24T10:54:45;0.47;;;0.10;;
64208;SDS011;50527;52.414;13.226;2023-04-24T11:00:14;0.30;;;0.20;;
64208;SDS011;50527;52.414;13.226;2023-04-24T11:02:45;1.50;;;0.10;;
64208;SDS011;50527;52.414;13.226;2023-04-24T11:05:17;3.55;;;0.17;;
64208;SDS011;50527;52.414;13.226;2023-04-24T11:10:38;1.08;;;0.10;;
64208;SDS011;50527;52.414;13.226;2023-04-24T11:13:12;1.08;;;0.20;;
64208;SDS011;50527;52.414;13.226;2023-04-24T11:15:41;0.98;;;0.10;;
64208;SDS011;50527;52.414;13.226;2023-04-24T11:18:12;0.98;;;0.00;;
64208;SDS011;50527;52.414;13.226;2023-04-24T11:20:41;0.55;;;0.10;;
64208;SDS011;50527;52.414;13.226;2023-04-24T11:23:08;3.42;;;0.20;;
64208;SDS011;50527;52.414;13.226;2023-04-24T11:25:33;1.00;;;0.10;;
64208;SDS011;50527;52.414;13.226;2023-04-24T11:28:04;0.38;;;0.10;;
64208;SDS011;50527;52.414;13.226;2023-04-24T11:30:31;3.28;;;0.38;;
64208;SDS011;50527;52.414;13.226;2023-04-24T11:33:04;0.30;;;0.10;;
64208;SDS011;50527;52.414;13.226;2023-04-24T11:35:30;4.80;;;0.22;;
64208;SDS011;50527;52.414;13.226;2023-04-24T11:38:03;1.13;;;0.20;;
64208;SDS011;50527;52.414;13.226;2023-04-24T11:40:30;2.08;;;0.20;;
64208;SDS011;50527;52.414;13.226;2023-04-24T11:42:56;0.45;;;0.20;;
64208;SDS011;50527;52.414;13.226;2023-04-24T11:45:25;1.60;;;0.20;;
64208;SDS011;50527;52.414;13.226;2023-04-24T11:47:52;1.95;;;0.20;;
64208;SDS011;50527;52.414;13.226;2023-04-24T11:50:19;1.75;;;0.20;;
64208;SDS011;50527;52.414;13.226;2023-04-24T11:52:47;1.00;;;0.10;;
64208;SDS011;50527;52.414;13.226;2023-04-24T11:57:39;1.08;;;0.10;;
64208;SDS011;50527;52.414;13.226;2023-04-24T12:00:14;3.28;;;0.20;;
64208;SDS011;50527;52.414;13.226;2023-04-24T12:02:48;0.47;;;0.10;;
64208;SDS011;50527;52.414;13.226;2023-04-24T12:05:20;0.68;;;0.15;;
64208;SDS011;50527;52.414;13.226;2023-04-24T12:07:52;0.20;;;0.10;;
64208;SDS011;50527;52.414;13.226;2023-04-24T12:10:25;2.42;;;0.10;;
64208;SDS011;50527;52.414;13.226;2023-04-24T12:12:52;2.20;;;0.10;;
64208;SDS011;50527;52.414;13.226;2023-04-24T12:15:22;0.20;;;0.10;;
64208;SDS011;50527;52.414;13.226;2023-04-24T12:17:50;0.95;;;0.10;;
64208;SDS011;50527;52.414;13.226;2023-04-24T12:20:16;1.95;;;0.17;;
64208;SDS011;50527;52.414;13.226;2023-04-24T12:22:43;0.60;;;0.10;;
64208;SDS011;50527;52.414;13.226;2023-04-24T12:25:12;0.38;;;0.20;;
64208;SDS011;50527;52.414;13.226;2023-04-24T12:27:38;0.98;;;0.20;;
64208;SDS011;50527;52.414;13.226;2023-04-24T12:30:05;1.10;;;0.20;;
64208;SDS011;50527;52.414;13.226;2023-04-24T12:32:34;0.13;;;0.10;;
64208;SDS011;50527;52.414;13.226;2023-04-24T12:35:00;0.25;;;0.10;;
64208;SDS011;50527;52.414;13.226;2023-04-24T12:37:26;0.40;;;0.10;;
64208;SDS011;50527;52.414;13.226;2023-04-24T12:40:04;0.10;;;0.10;;
64208;SDS011;50527;52.414;13.226;2023-04-24T12:42:35;1.65;;;0.10;;
64208;SDS011;50527;52.414;13.226;2023-04-24T12:45:06;2.17;;;0.20;;
64208;SDS011;50527;52.414;13.226;2023-04-24T12:47:33;1.00;;;0.10;;
64208;SDS011;50527;52.414;13.226;2023-04-24T12:49:59;0.10;;;0.08;;
64208;SDS011;50527;52.414;13.226;2023-04-24T12:52:27;0.55;;;0.10;;
64208;SDS011;50527;52.414;13.226;2023-04-24T12:54:54;1.75;;;0.10;;
64208;SDS011;50527;52.414;13.226;2023-04-24T12:57:22;0.30;;;0.10;;
64208;SDS011;50527;52.414;13.226;2023-04-24T12:59:48;0.20;;;0.10;;
64208;SDS011;50527;52.414;13.226;2023-04-24T13:02:13;3.10;;;0.10;;
64208;SDS011;50527;52.414;13.226;2023-04-24T13:04:42;0.28;;;0.10;;
64208;SDS011;50527;52.414;13.226;2023-04-24T13:07:11;1.02;;;0.10;;
64208;SDS011;50527;52.414;13.226;2023-04-24T13:09:38;0.13;;;0.10;;
64208;SDS011;50527;52.414;13.226;2023-04-24T13:12:04;0.10;;;0.00;;
64208;SDS011;50527;52.414;13.226;2023-04-24T13:14:33;0.30;;;0.10;;
64208;SDS011;50527;52.414;13.226;2023-04-24T13:16:59;0.25;;;0.10;;
64208;SDS011;50527;52.414;13.226;2023-04-24T13:19:25;1.05;;;0.13;;
64208;SDS011;50527;52.414;13.226;2023-04-24T13:21:52;0.20;;;0.10;;
64208;SDS011;50527;52.414;13.226;2023-04-24T13:24:22;0.40;;;0.10;;
64208;SDS011;50527;52.414;13.226;2023-04-24T13:26:51;0.00;;;0.00;;
64208;SDS011;50527;52.414;13.226;2023-04-24T13:29:19;0.47;;;0.10;;
64208;SDS011;50527;52.414;13.226;2023-04-24T13:31:45;0.20;;;0.00;;
64208;SDS011;50527;52.414;13.226;2023-04-24T13:34:11;1.40;;;0.20;;
64208;SDS011;50527;52.414;13.226;2023-04-24T13:36:38;0.65;;;0.10;;
64208;SDS011;50527;52.414;13.226;2023-04-24T13:39:04;0.95;;;0.08;;
64208;SDS011;50527;52.414;13.226;2023-04-24T13:41:30;0.68;;;0.08;;
64208;SDS011;50527;52.414;13.226;2023-04-24T13:43:56;0.05;;;0.05;;
64208;SDS011;50527;52.414;13.226;2023-04-24T13:46:22;0.30;;;0.10;;
64208;SDS011;50527;52.414;13.226;2023-04-24T13:48:47;1.75;;;0.20;;
64208;SDS011;50527;52.414;13.226;2023-04-24T13:51:13;0.17;;;0.05;;
64208;SDS011;50527;52.414;13.226;2023-04-24T13:53:38;0.10;;;0.10;;
64208;SDS011;50527;52.414;13.226;2023-04-24T13:56:04;1.45;;;0.30;;
64208;SDS011;50527;52.414;13.226;2023-04-24T13:58:33;0.57;;;0.10;;
64208;SDS011;50527;52.414;13.226;2023-04-24T14:01:01;0.15;;;0.10;;
64208;SDS011;50527;52.414;13.226;2023-04-24T14:03:28;0.82;;;0.10;;
64208;SDS011;50527;52.414;13.226;2023-04-24T14:05:53;0.00;;;0.00;;
64208;SDS011;50527;52.414;13.226;2023-04-24T14:08:19;1.40;;;0.10;;
64208;SDS011;50527;52.414;13.226;2023-04-24T14:10:44;0.40;;;0.10;;
64208;SDS011;50527;52.414;13.226;2023-04-24T14:13:10;1.75;;;0.10;;
64208;SDS011;50527;52.414;13.226;2023-04-24T14:15:36;0.68;;;0.10;;
64208;SDS011;50527;52.414;13.226;2023-04-24T14:18:01;0.55;;;0.10;;
64208;SDS011;50527;52.414;13.226;2023-04-24T14:20:28;1.30;;;0.20;;
64208;SDS011;50527;52.414;13.226;2023-04-24T14:22:53;0.38;;;0.10;;
64208;SDS011;50527;52.414;13.226;2023-04-24T14:25:19;0.45;;;0.15;;
64208;SDS011;50527;52.414;13.226;2023-04-24T14:27:44;1.27;;;0.10;;
64208;SDS011;50527;52.414;13.226;2023-04-24T14:30:10;0.93;;;0.10;;
64208;SDS011;50527;52.414;13.226;2023-04-24T14:32:38;0.47;;;0.10;;
64208;SDS011;50527;52.414;13.226;2023-04-24T14:35:04;0.93;;;0.10;;
64208;SDS011;50527;52.414;13.226;2023-04-24T14:37:30;2.40;;;0.20;;
64208;SDS011;50527;52.414;13.226;2023-04-24T14:39:56;0.30;;;0.15;;